Time;durP1;ratioP1;P1;durP2;ratioP2;P2;SDS_P1;SDS_P2;PMS_P1;PMS_P2;Temp;Humidity;BMP_temperature;BMP_pressure;BME280_temperature;BME280_humidity;BME280_pressure;Samples;Min_cycle;Max_cycle;Signal;HPM_P1;HPM_P2
2023/11/28 00:02:38;;;;;;;1.83;1.73;;;;;;;1.40;100.00;100050.56;6181903;28;20225;-69
2023/11/28 00:05:59;;;;;;;1.60;1.50;;;;;;;1.38;100.00;100055.13;6182975;28;20656;-69
2023/11/28 00:09:20;;;;;;;2.07;1.87;;;;;;;1.34;100.00;100054.47;6184138;28;20233;-69
2023/11/28 00:12:41;;;;;;;2.17;1.97;;;;;;;1.37;100.00;100053.44;6182452;28;20582;-69
2023/11/28 00:16:02;;;;;;;2.07;1.97;;;;;;;1.33;100.00;100060.75;6182944;28;20325;-69
2023/11/28 00:19:26;;;;;;;1.73;1.33;;;;;;;1.36;100.00;100057.88;6181380;28;20230;-69
2023/11/28 00:22:47;;;;;;;1.63;1.53;;;;;;;1.32;100.00;100056.38;6178329;28;20274;-69
2023/11/28 00:26:08;;;;;;;1.17;1.07;;;;;;;1.34;100.00;100064.25;6177456;28;20324;-69
2023/11/28 00:29:31;;;;;;;1.93;1.77;;;;;;;1.33;100.00;100058.09;6164789;28;20233;-69
2023/11/28 00:32:52;;;;;;;1.70;1.47;;;;;;;1.35;100.00;100061.50;6183561;28;20560;-68
2023/11/28 00:36:16;;;;;;;4.13;2.13;;;;;;;1.27;100.00;100061.13;6180378;28;20356;-70
2023/11/28 00:39:37;;;;;;;1.10;1.10;;;;;;;1.25;100.00;100060.38;6181844;28;20241;-69
2023/11/28 00:42:58;;;;;;;1.27;1.17;;;;;;;1.28;100.00;100065.50;6182832;28;20233;-70
2023/11/28 00:46:19;;;;;;;1.53;1.27;;;;;;;1.25;100.00;100068.34;6179357;28;20241;-69
2023/11/28 00:49:42;;;;;;;1.47;1.43;;;;;;;1.25;100.00;100070.97;6179065;28;20881;-69
2023/11/28 00:53:06;;;;;;;1.03;0.90;;;;;;;1.16;100.00;100070.72;6162786;28;20234;-69
2023/11/28 00:56:27;;;;;;;1.40;1.30;;;;;;;1.17;100.00;100073.28;6160420;28;20226;-70
2023/11/28 00:59:48;;;;;;;1.40;1.13;;;;;;;1.17;100.00;100078.59;6176425;28;20607;-69
2023/11/28 01:03:09;;;;;;;1.00;1.00;;;;;;;1.14;100.00;100081.44;6161077;28;20329;-69
2023/11/28 01:06:31;;;;;;;0.90;0.87;;;;;;;1.18;100.00;100074.13;6173363;28;20257;-70
2023/11/28 01:09:53;;;;;;;1.60;1.53;;;;;;;1.20;100.00;100075.75;6176621;28;20345;-70
2023/11/28 01:13:14;;;;;;;1.20;1.03;;;;;;;1.15;100.00;100077.81;6172576;28;20234;-69
2023/11/28 01:16:35;;;;;;;2.60;2.00;;;;;;;1.15;100.00;100085.78;6157893;28;21372;-70
2023/11/28 01:19:56;;;;;;;1.40;1.30;;;;;;;1.17;100.00;100091.03;6175775;28;20258;-69
2023/11/28 01:23:17;;;;;;;1.70;1.10;;;;;;;1.16;100.00;100084.00;6175976;28;20317;-69
2023/11/28 01:26:40;;;;;;;1.97;1.87;;;;;;;1.12;100.00;100086.00;6181850;28;21500;-68
2023/11/28 01:30:01;;;;;;;1.60;1.50;;;;;;;1.14;100.00;100091.22;6179494;28;20269;-69
2023/11/28 01:33:22;;;;;;;1.30;1.13;;;;;;;1.10;100.00;100101.16;6183042;28;20226;-69
2023/11/28 01:36:44;;;;;;;2.80;0.90;;;;;;;1.10;100.00;100101.16;6164062;28;20551;-69
2023/11/28 01:40:06;;;;;;;1.70;1.60;;;;;;;1.07;100.00;100103.13;6181221;28;20250;-69
2023/11/28 01:43:30;;;;;;;1.63;1.20;;;;;;;1.08;100.00;100112.81;6181645;28;20444;-69
2023/11/28 01:46:52;;;;;;;1.30;1.20;;;;;;;1.07;100.00;100119.91;6181620;28;20320;-69
2023/11/28 01:50:13;;;;;;;1.43;1.27;;;;;;;1.05;100.00;100116.50;6166081;28;20249;-68
2023/11/28 01:53:34;;;;;;;1.30;1.20;;;;;;;1.05;100.00;100118.31;6167779;28;20233;-68
2023/11/28 01:56:56;;;;;;;1.37;1.27;;;;;;;1.00;100.00;100115.94;6181435;28;20349;-69
2023/11/28 02:00:18;;;;;;;1.00;1.00;;;;;;;1.01;100.00;100115.00;6165428;28;20233;-69
2023/11/28 02:03:43;;;;;;;1.80;1.70;;;;;;;0.99;100.00;100113.38;6181365;28;20241;-69
2023/11/28 02:07:04;;;;;;;1.53;1.43;;;;;;;0.96;100.00;100118.91;6149079;28;20238;-69
2023/11/28 02:10:25;;;;;;;1.63;1.20;;;;;;;0.99;100.00;100114.25;6180772;28;20253;-69
2023/11/28 02:13:46;;;;;;;2.07;1.73;;;;;;;0.96;100.00;100113.59;6179415;28;20238;-69
2023/11/28 02:17:08;;;;;;;1.90;1.80;;;;;;;0.94;100.00;100118.13;6155353;28;20233;-69
2023/11/28 02:20:30;;;;;;;1.30;1.20;;;;;;;0.96;100.00;100122.38;6179081;28;20344;-68
2023/11/28 02:23:51;;;;;;;1.30;1.10;;;;;;;0.91;100.00;100121.81;6176276;28;20231;-69
2023/11/28 02:27:15;;;;;;;1.13;1.10;;;;;;;0.96;100.00;100126.84;6180785;28;20245;-69
2023/11/28 02:30:37;;;;;;;1.10;1.00;;;;;;;0.88;100.00;100126.47;6159118;28;20234;-69
2023/11/28 02:33:58;;;;;;;1.47;1.37;;;;;;;0.90;100.00;100124.56;6176248;28;20229;-69
2023/11/28 02:37:19;;;;;;;3.23;1.10;;;;;;;0.89;100.00;100117.56;6176629;28;20279;-69
2023/11/28 02:40:41;;;;;;;1.47;1.13;;;;;;;0.86;100.00;100118.59;6161718;28;20238;-70
2023/11/28 02:44:04;;;;;;;0.70;0.70;;;;;;;0.89;100.00;100120.19;6158886;28;20257;-69
2023/11/28 02:47:25;;;;;;;1.27;0.70;;;;;;;0.87;100.00;100125.63;6161340;28;20529;-69
2023/11/28 02:50:46;;;;;;;1.30;0.90;;;;;;;0.82;100.00;100127.69;6175276;28;20230;-69
2023/11/28 02:54:09;;;;;;;0.90;0.90;;;;;;;0.85;100.00;100145.22;6175907;28;20230;-69
2023/11/28 02:57:30;;;;;;;0.73;0.73;;;;;;;0.87;100.00;100133.56;6176444;28;20237;-69
2023/11/28 03:00:53;;;;;;;0.90;0.90;;;;;;;0.85;100.00;100139.91;6177950;28;20249;-69
2023/11/28 03:04:14;;;;;;;1.03;0.93;;;;;;;0.80;100.00;100132.22;6180576;28;20234;-69
2023/11/28 03:07:35;;;;;;;0.90;0.90;;;;;;;0.83;100.00;100132.88;6181993;28;20615;-69
2023/11/28 03:10:56;;;;;;;0.47;0.47;;;;;;;0.82;100.00;100132.97;6167467;28;20265;-68
2023/11/28 03:14:17;;;;;;;0.77;0.63;;;;;;;0.83;100.00;100142.66;6179577;28;20678;-69
2023/11/28 03:17:39;;;;;;;0.40;0.40;;;;;;;0.87;100.00;100138.88;6179798;28;21275;-69
2023/11/28 03:21:00;;;;;;;0.80;0.80;;;;;;;0.84;100.00;100141.69;6163355;28;20233;-69
2023/11/28 03:24:22;;;;;;;0.60;0.60;;;;;;;0.79;100.00;100146.44;6181376;28;20229;-70
2023/11/28 03:27:43;;;;;;;0.83;0.80;;;;;;;0.73;100.00;100145.00;6169818;28;20234;-70
2023/11/28 03:31:04;;;;;;;0.63;0.63;;;;;;;0.67;100.00;100147.16;6184119;28;20707;-68
2023/11/28 03:34:27;;;;;;;0.50;0.50;;;;;;;0.65;100.00;100144.63;6170131;28;20320;-68
2023/11/28 03:37:48;;;;;;;0.77;0.70;;;;;;;0.69;100.00;100142.63;6170474;28;20230;-69
2023/11/28 03:41:10;;;;;;;1.70;0.93;;;;;;;0.65;100.00;100147.28;6173539;28;20241;-69
2023/11/28 03:44:34;;;;;;;1.83;1.00;;;;;;;0.69;100.00;100155.88;6172988;28;20305;-72
2023/11/28 03:47:54;;;;;;;1.27;1.10;;;;;;;0.81;100.00;100153.34;6165581;28;20246;-70
2023/11/28 03:51:17;;;;;;;1.30;1.20;;;;;;;0.92;100.00;100159.81;6182887;28;20512;-69
2023/11/28 03:54:38;;;;;;;1.10;1.10;;;;;;;1.03;100.00;100158.22;6183252;28;20238;-68
2023/11/28 03:57:59;;;;;;;1.00;1.00;;;;;;;0.95;100.00;100155.19;6168754;28;20629;-69
2023/11/28 04:01:21;;;;;;;1.20;1.17;;;;;;;0.95;100.00;100156.97;6184093;28;20253;-68
2023/11/28 04:04:44;;;;;;;1.97;1.53;;;;;;;0.99;100.00;100162.00;6191604;28;20324;-69
2023/11/28 04:08:07;;;;;;;2.17;1.90;;;;;;;1.00;100.00;100169.00;6183258;28;20234;-68
2023/11/28 04:11:28;;;;;;;1.63;1.53;;;;;;;1.07;100.00;100166.81;6180866;28;20825;-69
2023/11/28 04:14:49;;;;;;;1.50;1.40;;;;;;;1.14;100.00;100173.47;6168315;28;20759;-69
2023/11/28 04:18:12;;;;;;;3.53;2.13;;;;;;;1.12;100.00;100176.22;6165689;28;20241;-69
2023/11/28 04:21:33;;;;;;;1.87;1.77;;;;;;;1.23;100.00;100172.91;6160834;28;20496;-69
2023/11/28 04:24:56;;;;;;;2.77;2.60;;;;;;;1.20;100.00;100178.41;6170633;28;20237;-69
2023/11/28 04:28:17;;;;;;;2.07;1.90;;;;;;;1.26;100.00;100175.38;6175862;28;20237;-70
2023/11/28 04:31:39;;;;;;;2.33;2.00;;;;;;;1.21;100.00;100188.91;6167345;28;20246;-70
2023/11/28 04:35:00;;;;;;;1.73;1.53;;;;;;;1.23;100.00;100194.16;6162667;28;20522;-70
2023/11/28 04:38:20;;;;;;;1.60;1.50;;;;;;;1.25;100.00;100178.97;6171901;28;20238;-70
2023/11/28 04:41:46;;;;;;;1.50;1.40;;;;;;;1.24;100.00;100196.69;6173356;28;20242;-69
2023/11/28 04:45:08;;;;;;;1.80;1.70;;;;;;;1.24;100.00;100188.75;6159586;28;20584;-70
2023/11/28 04:48:29;;;;;;;1.80;1.67;;;;;;;1.11;100.00;100198.38;6170073;28;20505;-69
2023/11/28 04:51:50;;;;;;;2.27;2.13;;;;;;;1.04;100.00;100197.06;6173738;28;20280;-69
2023/11/28 04:55:12;;;;;;;1.17;1.07;;;;;;;0.91;100.00;100198.75;6171285;28;20234;-69
2023/11/28 04:58:35;;;;;;;1.17;1.17;;;;;;;0.73;100.00;100221.09;6159770;28;20785;-70
2023/11/28 05:01:56;;;;;;;2.90;1.40;;;;;;;0.73;100.00;100218.44;6167715;28;20325;-69
2023/11/28 05:05:17;;;;;;;1.93;1.80;;;;;;;0.85;100.00;100220.34;6161358;28;21977;-69
2023/11/28 05:08:38;;;;;;;1.60;1.50;;;;;;;0.85;100.00;100224.78;6162910;28;20582;-69
2023/11/28 05:11:59;;;;;;;1.47;1.37;;;;;;;0.84;100.00;100226.59;6167359;28;20250;-69
2023/11/28 05:15:21;;;;;;;1.93;1.80;;;;;;;0.86;100.00;100234.44;6167134;28;20241;-69
2023/11/28 05:18:43;;;;;;;2.50;2.30;;;;;;;0.82;100.00;100232.00;6175959;28;20273;-69
2023/11/28 05:22:04;;;;;;;1.27;1.17;;;;;;;0.71;100.00;100233.56;6172354;28;20234;-70
2023/11/28 05:25:27;;;;;;;1.47;1.33;;;;;;;0.67;100.00;100237.31;6179092;28;20229;-69
2023/11/28 05:28:48;;;;;;;1.93;1.77;;;;;;;0.55;100.00;100230.09;6167571;28;20230;-70
2023/11/28 05:32:10;;;;;;;1.57;1.47;;;;;;;0.47;100.00;100232.34;6177873;28;20234;-69
2023/11/28 05:35:31;;;;;;;1.40;1.30;;;;;;;0.47;100.00;100229.69;6165376;28;20706;-70
2023/11/28 05:38:53;;;;;;;1.80;1.70;;;;;;;0.48;100.00;100229.59;6181751;28;20324;-69
2023/11/28 05:42:14;;;;;;;2.37;2.17;;;;;;;0.44;100.00;100235.19;6167293;28;20614;-68
2023/11/28 05:45:35;;;;;;;1.50;1.40;;;;;;;0.40;100.00;100228.31;6180508;28;20652;-70
2023/11/28 05:49:00;;;;;;;1.43;1.33;;;;;;;0.41;100.00;100232.69;6165147;28;20262;-71
2023/11/28 05:52:27;;;;;;;2.53;1.90;;;;;;;0.40;100.00;100237.13;6160360;28;20242;-69
2023/11/28 05:55:48;;;;;;;1.33;1.23;;;;;;;0.36;100.00;100248.88;6163522;28;20347;-70
2023/11/28 05:59:10;;;;;;;1.50;1.40;;;;;;;0.41;100.00;100251.25;6177807;28;20238;-69
2023/11/28 06:02:31;;;;;;;2.33;1.60;;;;;;;0.45;100.00;100253.66;6168807;28;20242;-68
2023/11/28 06:05:53;;;;;;;2.27;2.17;;;;;;;0.42;100.00;100256.47;6173813;28;20565;-70
2023/11/28 06:09:15;;;;;;;2.00;1.87;;;;;;;0.45;100.00;100263.38;6177856;28;21357;-70
2023/11/28 06:12:37;;;;;;;1.67;1.57;;;;;;;0.46;100.00;100270.41;6170504;28;20569;-69
2023/11/28 06:15:59;;;;;;;3.77;1.97;;;;;;;0.42;100.00;100274.16;6161939;28;20238;-69
2023/11/28 06:19:21;;;;;;;2.13;1.97;;;;;;;0.40;100.00;100263.66;6174681;28;20238;-69
2023/11/28 06:22:44;;;;;;;1.83;1.73;;;;;;;0.39;100.00;100263.75;6164835;28;20997;-70
2023/11/28 06:26:06;;;;;;;1.53;1.43;;;;;;;0.32;100.00;100268.53;6180832;28;20234;-69
2023/11/28 06:29:27;;;;;;;2.13;1.67;;;;;;;0.40;100.00;100268.09;6182071;28;20229;-70
2023/11/28 06:32:47;;;;;;;1.77;1.67;;;;;;;0.45;100.00;100276.66;6171918;28;20226;-69
2023/11/28 06:36:09;;;;;;;2.20;1.73;;;;;;;0.51;100.00;100278.94;6161911;28;20253;-70
2023/11/28 06:39:33;;;;;;;1.50;1.37;;;;;;;0.56;100.00;100272.41;6180125;28;20233;-69
2023/11/28 06:42:57;;;;;;;1.77;1.67;;;;;;;0.61;100.00;100280.13;6173213;28;20246;-70
2023/11/28 06:46:19;;;;;;;2.30;2.20;;;;;;;0.57;100.00;100281.22;6177781;28;20611;-70
2023/11/28 06:49:44;;;;;;;3.00;1.77;;;;;;;0.53;100.00;100287.66;6180417;28;20229;-70
2023/11/28 06:53:07;;;;;;;2.40;1.90;;;;;;;0.42;100.00;100298.88;6176444;28;20234;-70
2023/11/28 06:56:30;;;;;;;3.20;1.90;;;;;;;0.52;100.00;100297.41;6179402;28;20229;-69
2023/11/28 06:59:51;;;;;;;2.13;1.90;;;;;;;0.70;100.00;100301.66;6179157;28;20238;-69
2023/11/28 07:03:12;;;;;;;2.67;1.80;;;;;;;0.87;100.00;100306.00;6178993;28;20250;-70
2023/11/28 07:06:33;;;;;;;8.17;2.63;;;;;;;0.93;100.00;100312.72;6182802;28;20238;-70
2023/11/28 07:09:54;;;;;;;2.67;2.37;;;;;;;0.93;100.00;100304.78;6183540;28;20324;-70
2023/11/28 07:13:20;;;;;;;2.27;1.97;;;;;;;0.81;100.00;100312.50;6184527;28;20234;-68
2023/11/28 07:16:41;;;;;;;2.07;1.87;;;;;;;0.94;100.00;100312.63;6178861;28;20230;-69
2023/11/28 07:20:02;;;;;;;2.33;1.70;;;;;;;0.97;100.00;100322.22;6183683;28;20230;-70
2023/11/28 07:23:23;;;;;;;2.00;1.90;;;;;;;0.86;100.00;100325.50;6181012;28;20245;-69
2023/11/28 07:26:44;;;;;;;1.97;1.87;;;;;;;0.98;100.00;100324.78;6179919;28;20246;-70
2023/11/28 07:30:08;;;;;;;3.37;1.73;;;;;;;1.04;100.00;100328.88;6161926;28;20234;-70
2023/11/28 07:33:29;;;;;;;3.73;1.70;;;;;;;1.04;100.00;100329.75;6183594;28;20253;-70
2023/11/28 07:36:51;;;;;;;2.53;1.77;;;;;;;1.10;100.00;100332.03;6172225;28;20226;-69
2023/11/28 07:40:12;;;;;;;2.27;1.60;;;;;;;1.14;100.00;100336.22;6183684;28;20273;-70
2023/11/28 07:43:34;;;;;;;2.17;1.97;;;;;;;1.12;100.00;100331.94;6183255;28;20644;-70
2023/11/28 07:46:56;;;;;;;3.50;3.20;;;;;;;1.09;100.00;100346.25;6182766;28;20226;-70
2023/11/28 07:50:17;;;;;;;2.50;1.73;;;;;;;1.05;100.00;100344.72;6182906;28;20901;-70
2023/11/28 07:53:38;;;;;;;1.77;1.67;;;;;;;1.01;100.00;100358.25;6182585;28;20234;-70
2023/11/28 07:57:00;;;;;;;5.33;3.20;;;;;;;1.06;100.00;100354.41;6182782;28;20492;-69
2023/11/28 08:00:22;;;;;;;2.50;2.30;;;;;;;1.13;100.00;100369.00;6181705;28;20234;-69
2023/11/28 08:03:44;;;;;;;2.13;1.50;;;;;;;1.12;100.00;100362.00;6179274;28;20636;-69
2023/11/28 08:07:05;;;;;;;1.87;1.63;;;;;;;1.15;100.00;100366.28;6182616;28;20234;-69
2023/11/28 08:10:25;;;;;;;1.70;1.60;;;;;;;1.05;100.00;100375.69;6167783;28;20233;-68
2023/11/28 08:13:46;;;;;;;1.60;1.30;;;;;;;1.05;100.00;100379.22;6168506;28;20229;-70
2023/11/28 08:17:07;;;;;;;6.30;3.20;;;;;;;1.05;100.00;100375.69;6171030;28;20238;-69
2023/11/28 08:20:32;;;;;;;1.37;1.33;;;;;;;1.10;100.00;100385.13;6180708;28;20257;-68
2023/11/28 08:23:53;;;;;;;1.27;1.17;;;;;;;1.16;100.00;100379.44;6183837;28;20237;-70
2023/11/28 08:27:15;;;;;;;1.83;1.73;;;;;;;1.12;100.00;100383.22;6183158;28;20234;-70
2023/11/28 08:30:36;;;;;;;2.33;1.40;;;;;;;1.18;100.00;100387.31;6181439;28;20234;-70
2023/11/28 08:33:57;;;;;;;2.33;1.40;;;;;;;1.23;100.00;100379.94;6184443;28;20238;-69
2023/11/28 08:37:19;;;;;;;1.47;1.37;;;;;;;1.28;100.00;100381.38;6181132;28;20234;-70
2023/11/28 08:40:40;;;;;;;1.30;1.20;;;;;;;1.30;100.00;100383.94;6162487;28;20226;-70
2023/11/28 08:44:01;;;;;;;1.70;1.60;;;;;;;1.26;100.00;100382.41;6180720;28;20233;-70
2023/11/28 08:47:21;;;;;;;4.87;2.00;;;;;;;1.32;100.00;100382.91;6182625;28;20238;-69
2023/11/28 08:50:43;;;;;;;1.70;1.60;;;;;;;1.45;100.00;100397.19;6181228;28;20250;-69
2023/11/28 08:54:05;;;;;;;1.93;1.73;;;;;;;1.41;100.00;100400.97;6183028;28;20627;-70
2023/11/28 08:57:33;;;;;;;1.77;1.20;;;;;;;1.41;100.00;100403.63;6173544;28;20237;-70
2023/11/28 09:00:54;;;;;;;7.00;1.80;;;;;;;1.46;100.00;100408.66;6178354;28;20237;-69
2023/11/28 09:04:15;;;;;;;1.90;1.80;;;;;;;1.52;100.00;100406.47;6182773;28;20237;-70
2023/11/28 09:07:36;;;;;;;1.83;1.73;;;;;;;1.55;100.00;100401.00;6175169;28;20238;-70
2023/11/28 09:11:02;;;;;;;1.97;1.77;;;;;;;1.77;100.00;100413.00;6182657;28;20559;-70
2023/11/28 09:14:23;;;;;;;1.60;1.50;;;;;;;1.83;100.00;100416.16;6182902;28;20234;-70
2023/11/28 09:17:44;;;;;;;1.50;1.40;;;;;;;1.79;100.00;100419.94;6181999;28;20235;-70
2023/11/28 09:21:06;;;;;;;1.67;1.57;;;;;;;1.81;100.00;100428.66;6178729;28;20226;-69
2023/11/28 09:24:26;;;;;;;1.63;1.53;;;;;;;1.99;100.00;100432.00;6175402;28;20261;-70
2023/11/28 09:27:49;;;;;;;2.73;2.10;;;;;;;1.89;100.00;100430.84;6175289;28;20241;-70
2023/11/28 09:31:10;;;;;;;2.20;2.00;;;;;;;2.00;100.00;100434.56;6175035;28;20229;-70
2023/11/28 09:34:32;;;;;;;1.90;1.53;;;;;;;2.06;100.00;100417.41;6172756;28;20289;-69
2023/11/28 09:37:53;;;;;;;2.20;1.97;;;;;;;2.92;100.00;100423.38;6177047;28;20229;-71
2023/11/28 09:41:14;;;;;;;2.17;1.70;;;;;;;3.10;100.00;100430.19;6176132;28;20683;-69
2023/11/28 09:44:37;;;;;;;1.80;1.70;;;;;;;2.97;100.00;100423.94;6173854;28;20349;-69
2023/11/28 09:48:06;;;;;;;1.63;1.53;;;;;;;3.13;100.00;100440.63;6176609;28;20230;-70
2023/11/28 09:51:28;;;;;;;1.70;1.10;;;;;;;3.42;100.00;100432.53;6170478;28;20237;-69
2023/11/28 09:54:53;;;;;;;2.37;1.80;;;;;;;3.83;100.00;100438.59;6182000;28;20225;-69
2023/11/28 09:58:15;;;;;;;2.57;1.63;;;;;;;4.46;100.00;100433.28;6178733;28;20237;-70
2023/11/28 10:01:38;;;;;;;1.80;1.67;;;;;;;4.53;100.00;100435.38;6179822;28;20234;-70
2023/11/28 10:05:00;;;;;;;2.43;1.40;;;;;;;4.33;100.00;100433.28;6179510;28;20249;-70
2023/11/28 10:08:22;;;;;;;1.87;1.50;;;;;;;3.83;100.00;100438.59;6172648;28;20314;-70
2023/11/28 10:11:44;;;;;;;2.43;2.10;;;;;;;3.55;100.00;100441.41;6180962;28;20370;-71
2023/11/28 10:15:06;;;;;;;4.30;1.67;;;;;;;3.26;100.00;100440.66;6180151;28;20238;-68
2023/11/28 10:18:36;;;;;;;1.83;1.67;;;;;;;3.18;100.00;100445.66;6175500;28;20238;-70
2023/11/28 10:21:58;;;;;;;1.57;1.47;;;;;;;3.17;100.00;100446.63;6176073;28;20240;-69
2023/11/28 10:25:21;;;;;;;1.90;1.73;;;;;;;3.08;100.00;100441.88;6182413;28;20237;-69
2023/11/28 10:28:41;;;;;;;2.87;2.30;;;;;;;4.17;100.00;100446.00;6180046;28;20321;-70
2023/11/28 10:32:05;;;;;;;1.37;1.10;;;;;;;5.22;100.00;100441.91;6178391;28;20238;-69
2023/11/28 10:35:40;;;;;;;1.60;1.50;;;;;;;4.07;100.00;100448.44;6180934;28;20659;-69
2023/11/28 10:39:02;;;;;;;1.40;1.27;;;;;;;3.23;100.00;100449.72;6181830;28;20225;-69
2023/11/28 10:42:23;;;;;;;1.60;1.50;;;;;;;2.68;100.00;100451.56;6176701;28;20620;-70
2023/11/28 10:45:45;;;;;;;3.17;1.53;;;;;;;2.64;100.00;100466.03;6180743;28;20238;-70
2023/11/28 10:49:09;;;;;;;1.43;1.10;;;;;;;2.29;100.00;100462.03;6177269;28;20245;-72
2023/11/28 10:52:33;;;;;;;2.20;1.40;;;;;;;2.20;100.00;100466.13;6180037;28;20233;-70
2023/11/28 10:55:57;;;;;;;1.53;1.40;;;;;;;2.03;100.00;100468.06;6181522;28;20226;-70
2023/11/28 10:59:26;;;;;;;2.13;1.67;;;;;;;2.11;100.00;100471.97;6180972;28;20226;-70
2023/11/28 11:02:47;;;;;;;2.63;1.77;;;;;;;2.16;100.00;100477.03;6177395;28;20602;-69
2023/11/28 11:06:09;;;;;;;1.43;1.33;;;;;;;2.32;100.00;100472.47;6177779;28;20238;-70
2023/11/28 11:09:34;;;;;;;2.67;2.30;;;;;;;2.27;100.00;100480.72;6176694;28;20230;-70
2023/11/28 11:13:04;;;;;;;1.57;1.47;;;;;;;2.37;100.00;100473.06;6179594;28;20229;-70
2023/11/28 11:16:33;;;;;;;1.93;1.83;;;;;;;2.42;100.00;100477.13;6181156;28;20263;-69
2023/11/28 11:19:58;;;;;;;3.63;2.87;;;;;;;2.41;100.00;100488.72;6176607;28;20532;-69
2023/11/28 11:23:21;;;;;;;2.10;1.30;;;;;;;2.40;100.00;100478.16;6181165;28;20245;-69
2023/11/28 11:26:49;;;;;;;1.40;1.30;;;;;;;2.52;100.00;100479.22;6169619;28;20225;-69
2023/11/28 11:30:10;;;;;;;3.63;1.57;;;;;;;2.34;100.00;100467.91;6181404;28;20245;-69
2023/11/28 11:33:31;;;;;;;1.73;1.33;;;;;;;2.44;100.00;100474.41;6179573;28;20238;-69
2023/11/28 11:37:05;;;;;;;1.40;1.30;;;;;;;2.48;100.00;100473.25;6177111;28;20253;-69
2023/11/28 11:40:27;;;;;;;1.10;1.10;;;;;;;2.39;100.00;100485.31;6180168;28;20225;-68
2023/11/28 11:43:53;;;;;;;2.40;1.60;;;;;;;2.41;100.00;100487.88;6179218;28;20920;-69
2023/11/28 11:47:16;;;;;;;2.60;2.30;;;;;;;2.33;100.00;100492.81;6176309;28;20233;-69
2023/11/28 11:50:37;;;;;;;1.47;1.37;;;;;;;2.24;100.00;100491.56;6184162;28;20233;-68
2023/11/28 11:54:00;;;;;;;1.50;1.40;;;;;;;2.13;100.00;100491.34;6182173;28;20615;-69
2023/11/28 11:57:24;;;;;;;2.37;2.03;;;;;;;2.11;100.00;100493.25;6170715;28;20511;-69
2023/11/28 12:00:47;;;;;;;1.63;1.50;;;;;;;2.06;100.00;100487.38;6184819;28;20246;-69
2023/11/28 12:04:12;;;;;;;2.50;1.53;;;;;;;2.10;100.00;100490.69;6182700;28;20234;-69
2023/11/28 12:07:34;;;;;;;2.00;1.37;;;;;;;2.09;100.00;100494.28;6183624;28;20520;-69
2023/11/28 12:11:06;;;;;;;1.53;1.40;;;;;;;2.12;100.00;100499.41;6180680;28;20230;-71
2023/11/28 12:14:27;;;;;;;1.83;1.30;;;;;;;2.34;100.00;100499.81;6181908;28;20233;-69
2023/11/28 12:17:51;;;;;;;1.70;1.60;;;;;;;2.24;100.00;100499.53;6183526;28;20640;-70
2023/11/28 12:21:11;;;;;;;2.27;1.90;;;;;;;2.43;100.00;100504.59;6177354;28;20238;-68
2023/11/28 12:24:33;;;;;;;2.73;1.50;;;;;;;2.54;100.00;100507.44;6179511;28;20241;-69
2023/11/28 12:27:54;;;;;;;1.73;1.60;;;;;;;2.40;100.00;100510.06;6163892;28;20317;-69
2023/11/28 12:31:15;;;;;;;5.33;2.80;;;;;;;2.23;100.00;100511.09;6177305;28;20238;-69
2023/11/28 12:34:39;;;;;;;1.90;1.80;;;;;;;2.33;100.00;100511.44;6177472;28;20237;-69
2023/11/28 12:38:00;;;;;;;3.77;3.27;;;;;;;2.32;100.00;100518.53;6178508;28;20258;-70
2023/11/28 12:41:31;;;;;;;1.77;1.67;;;;;;;2.08;100.00;100514.72;6176377;28;20241;-68
2023/11/28 12:44:52;;;;;;;2.63;1.97;;;;;;;2.05;100.00;100517.53;6176498;28;20244;-68
2023/11/28 12:48:13;;;;;;;1.40;1.30;;;;;;;2.07;100.00;100518.31;6175737;28;20233;-69
2023/11/28 12:51:35;;;;;;;1.63;1.43;;;;;;;1.96;100.00;100520.72;6183047;28;20230;-68
2023/11/28 12:54:56;;;;;;;1.70;1.60;;;;;;;1.92;100.00;100515.72;6174332;28;20620;-69
2023/11/28 12:58:21;;;;;;;3.03;1.60;;;;;;;1.86;100.00;100518.72;6183106;28;20608;-69
2023/11/28 13:01:43;;;;;;;2.53;2.33;;;;;;;1.91;100.00;100524.63;6175511;28;20258;-69
2023/11/28 13:05:05;;;;;;;2.70;1.40;;;;;;;1.79;100.00;100518.25;6181317;28;20250;-69
2023/11/28 13:08:28;;;;;;;2.43;2.23;;;;;;;1.81;100.00;100526.13;6180303;28;20230;-69
2023/11/28 13:11:49;;;;;;;2.13;1.97;;;;;;;1.77;100.00;100519.25;6176354;28;20360;-70
2023/11/28 13:15:11;;;;;;;2.63;2.40;;;;;;;1.82;100.00;100527.81;6180861;28;20325;-70
2023/11/28 13:18:31;;;;;;;1.60;1.50;;;;;;;1.83;100.00;100516.25;6181046;28;20646;-68
2023/11/28 13:21:53;;;;;;;1.73;1.60;;;;;;;2.02;100.00;100527.50;6182884;28;20286;-69
2023/11/28 13:25:16;;;;;;;5.27;3.07;;;;;;;2.11;100.00;100525.16;6183291;28;20233;-69
2023/11/28 13:28:37;;;;;;;2.53;1.70;;;;;;;2.02;100.00;100527.50;6183049;28;20237;-69
2023/11/28 13:32:01;;;;;;;3.50;2.80;;;;;;;2.13;100.00;100531.22;6181106;28;20237;-69
2023/11/28 13:35:22;;;;;;;2.33;2.23;;;;;;;2.19;100.00;100524.69;6182199;28;20233;-69
2023/11/28 13:38:43;;;;;;;1.83;1.40;;;;;;;2.26;100.00;100523.38;6182389;28;20234;-69
2023/11/28 13:42:07;;;;;;;1.77;1.67;;;;;;;2.26;100.00;100529.56;6180372;28;20241;-69
2023/11/28 13:45:33;;;;;;;1.57;1.20;;;;;;;2.20;100.00;100534.38;6181344;28;20238;-70
2023/11/28 13:48:54;;;;;;;1.30;1.20;;;;;;;2.35;100.00;100541.44;6180649;28;20246;-68
2023/11/28 13:52:15;;;;;;;1.50;1.40;;;;;;;2.15;100.00;100544.44;6180860;28;20261;-69
2023/11/28 13:55:37;;;;;;;1.83;1.50;;;;;;;2.11;100.00;100530.47;6182553;28;20237;-68
2023/11/28 13:59:00;;;;;;;1.60;1.50;;;;;;;2.33;100.00;100528.25;6182266;28;20234;-69
2023/11/28 14:02:20;;;;;;;13.53;2.87;;;;;;;2.60;100.00;100532.81;6177195;28;20624;-69
2023/11/28 14:05:42;;;;;;;1.50;1.40;;;;;;;2.49;100.00;100543.25;6180150;28;20316;-70
2023/11/28 14:09:04;;;;;;;3.73;2.67;;;;;;;2.26;100.00;100536.66;6180200;28;20230;-69
2023/11/28 14:12:24;;;;;;;2.27;1.90;;;;;;;2.08;100.00;100538.63;6181509;28;20245;-70
2023/11/28 14:15:47;;;;;;;2.40;1.30;;;;;;;1.97;100.00;100542.84;6168609;28;20344;-69
2023/11/28 14:19:08;;;;;;;1.70;1.50;;;;;;;1.79;100.00;100535.97;6179500;28;20225;-68
2023/11/28 14:22:29;;;;;;;1.77;1.67;;;;;;;1.71;100.00;100535.56;6177772;28;20226;-69
2023/11/28 14:25:50;;;;;;;1.47;1.37;;;;;;;1.54;100.00;100537.38;6175954;28;20237;-68
2023/11/28 14:29:11;;;;;;;2.53;2.23;;;;;;;1.49;100.00;100536.78;6166829;28;20233;-69
2023/11/28 14:32:36;;;;;;;1.60;1.50;;;;;;;1.44;100.00;100544.16;6175324;28;20794;-69
2023/11/28 14:35:56;;;;;;;4.03;2.80;;;;;;;1.40;100.00;100542.63;6173966;28;20507;-69
2023/11/28 14:39:18;;;;;;;7.10;1.67;;;;;;;1.45;100.00;100537.06;6175777;28;20234;-69
2023/11/28 14:42:40;;;;;;;1.77;1.67;;;;;;;1.35;100.00;100544.69;6173969;28;20269;-69
2023/11/28 14:46:01;;;;;;;2.40;1.67;;;;;;;1.42;100.00;100532.75;6160155;28;20262;-68
2023/11/28 14:49:23;;;;;;;2.67;2.33;;;;;;;1.45;100.00;100537.06;6174135;28;20225;-70
2023/11/28 14:52:44;;;;;;;2.03;1.83;;;;;;;1.33;100.00;100528.00;6177622;28;20233;-71
2023/11/28 14:56:06;;;;;;;3.03;1.40;;;;;;;1.24;100.00;100540.91;6179427;28;21436;-70
2023/11/28 14:59:28;;;;;;;2.17;1.97;;;;;;;1.37;100.00;100539.28;6180916;28;20234;-69
2023/11/28 15:02:49;;;;;;;2.03;1.93;;;;;;;1.26;100.00;100537.25;6172511;28;20271;-70
2023/11/28 15:06:13;;;;;;;3.00;1.87;;;;;;;1.24;100.00;100541.78;6180333;28;20237;-69
2023/11/28 15:09:34;;;;;;;1.73;1.60;;;;;;;1.22;100.00;100534.84;6171345;28;20259;-70
2023/11/28 15:12:57;;;;;;;1.30;1.20;;;;;;;1.12;100.00;100531.00;6177722;28;20261;-70
2023/11/28 15:16:18;;;;;;;2.83;1.63;;;;;;;1.03;100.00;100540.31;6180573;28;20608;-70
2023/11/28 15:19:39;;;;;;;3.10;1.53;;;;;;;0.86;100.00;100540.38;6167265;28;20290;-69
2023/11/28 15:23:01;;;;;;;1.90;1.20;;;;;;;0.81;100.00;100530.00;6178030;28;20332;-69
2023/11/28 15:26:22;;;;;;;1.60;1.50;;;;;;;0.79;100.00;100536.38;6179068;28;20237;-68
2023/11/28 15:29:43;;;;;;;1.90;1.70;;;;;;;0.78;100.00;100545.25;6178634;28;20233;-70
2023/11/28 15:33:04;;;;;;;2.87;2.50;;;;;;;0.68;100.00;100546.69;6178676;28;20237;-70
2023/11/28 15:36:24;;;;;;;1.87;1.60;;;;;;;0.66;100.00;100540.59;6178642;28;20238;-70
2023/11/28 15:39:47;;;;;;;5.53;2.27;;;;;;;0.59;100.00;100540.06;6177161;28;20245;-69